Time;durP1;ratioP1;P1;durP2;ratioP2;P2;SDS_P1;SDS_P2;PMS_P1;PMS_P2;Temp;Humidity;BMP_temperature;BMP_pressure;BME280_temperature;BME280_humidity;BME280_pressure;Samples;Min_cycle;Max_cycle;Signal;HPM_P1;HPM_P2
2023/08/21 00:00:53;;;;;;;3.27;2.37;;;30.20;54.30;;;;;;4981959;28;20470;-82
2023/08/21 00:03:22;;;;;;;4.40;2.33;;;30.20;54.30;;;;;;4983156;28;20525;-81
2023/08/21 00:05:50;;;;;;;4.93;2.20;;;30.20;54.30;;;;;;4982424;28;20439;-82
2023/08/21 00:08:18;;;;;;;3.20;2.30;;;30.20;54.40;;;;;;4983469;28;20445;-80
2023/08/21 00:10:46;;;;;;;5.37;3.27;;;30.20;54.40;;;;;;4984311;28;20469;-84
2023/08/21 00:13:14;;;;;;;5.00;2.90;;;30.10;54.10;;;;;;4982005;28;20448;-82
2023/08/21 00:15:42;;;;;;;5.93;2.80;;;30.00;53.70;;;;;;4982162;28;20454;-82
2023/08/21 00:18:10;;;;;;;4.37;2.20;;;29.90;53.60;;;;;;4981654;28;20485;-82
2023/08/21 00:20:41;;;;;;;5.60;2.90;;;29.90;54.10;;;;;;4981818;28;20538;-82
2023/08/21 00:23:09;;;;;;;6.70;2.70;;;29.90;54.30;;;;;;4982130;28;20460;-81
2023/08/21 00:25:37;;;;;;;7.10;3.00;;;29.90;54.20;;;;;;4982149;28;20434;-82
2023/08/21 00:28:06;;;;;;;5.27;3.03;;;29.90;54.20;;;;;;4981608;28;20456;-82
2023/08/21 00:30:34;;;;;;;4.20;2.43;;;29.90;54.10;;;;;;4981659;28;20477;-82
2023/08/21 00:33:02;;;;;;;6.43;2.70;;;29.90;54.10;;;;;;4981872;28;20456;-82
2023/08/21 00:35:30;;;;;;;4.77;2.70;;;29.90;54.10;;;;;;4981396;28;20458;-83
2023/08/21 00:37:59;;;;;;;5.23;2.13;;;29.80;54.00;;;;;;4980791;28;20490;-82
2023/08/21 00:40:27;;;;;;;3.73;2.47;;;29.90;54.10;;;;;;4980638;28;20501;-82
2023/08/21 00:42:56;;;;;;;8.10;2.60;;;29.90;54.10;;;;;;4981118;28;20421;-82
2023/08/21 00:45:24;;;;;;;2.50;2.30;;;29.80;54.70;;;;;;4989965;28;21004;-82
2023/08/21 00:47:51;;;;;;;3.97;2.37;;;29.80;54.10;;;;;;4991206;28;20452;-81
2023/08/21 00:50:20;;;;;;;4.53;2.50;;;29.80;54.20;;;;;;4982803;28;20409;-82
2023/08/21 00:52:47;;;;;;;5.40;2.50;;;29.80;54.00;;;;;;4980332;28;20446;-82
2023/08/21 00:55:17;;;;;;;3.43;2.53;;;29.80;54.10;;;;;;4980660;28;20513;-81
2023/08/21 00:57:45;;;;;;;3.17;2.23;;;29.80;54.10;;;;;;4979866;28;20481;-82
2023/08/21 01:00:14;;;;;;;2.67;2.27;;;29.70;54.00;;;;;;4983178;28;20541;-81
2023/08/21 01:02:42;;;;;;;2.87;2.20;;;29.70;54.00;;;;;;4985514;28;20446;-82
2023/08/21 01:05:13;;;;;;;4.37;3.40;;;29.70;54.00;;;;;;4985997;28;20508;-79
2023/08/21 01:07:45;;;;;;;7.43;6.17;;;29.70;54.10;;;;;;4985298;28;20494;-80
2023/08/21 01:10:16;;;;;;;17.20;11.67;;;29.70;54.10;;;;;;4983848;28;20448;-81
2023/08/21 01:12:47;;;;;;;18.70;13.37;;;29.70;54.00;;;;;;4983869;28;20436;-82
2023/08/21 01:15:15;;;;;;;18.60;13.83;;;29.70;54.10;;;;;;4980412;28;20450;-81
2023/08/21 01:17:43;;;;;;;18.00;12.70;;;29.70;54.10;;;;;;4980444;28;20429;-80
2023/08/21 01:20:11;;;;;;;15.50;13.30;;;29.60;54.00;;;;;;4979577;28;20455;-82
2023/08/21 01:22:39;;;;;;;18.93;14.50;;;29.60;54.00;;;;;;4979670;28;20917;-83
2023/08/21 01:25:10;;;;;;;23.33;16.17;;;29.60;54.10;;;;;;4979952;28;20545;-83
2023/08/21 01:27:38;;;;;;;24.67;18.63;;;29.60;53.90;;;;;;4979371;28;20470;-82
2023/08/21 01:30:07;;;;;;;25.13;18.27;;;29.60;54.00;;;;;;4980154;28;20474;-82
2023/08/21 01:32:41;;;;;;;24.03;18.60;;;29.60;53.90;;;;;;4980983;28;20485;-82
2023/08/21 01:35:09;;;;;;;25.20;19.30;;;29.60;53.90;;;;;;4979866;28;20420;-82
2023/08/21 01:37:37;;;;;;;28.47;20.77;;;29.50;53.90;;;;;;4981197;28;20432;-82
2023/08/21 01:40:06;;;;;;;23.97;19.27;;;29.50;53.90;;;;;;4980176;28;20477;-82
2023/08/21 01:42:35;;;;;;;39.73;29.60;;;29.60;53.90;;;;;;4979666;28;20429;-82
2023/08/21 01:45:04;;;;;;;40.23;29.67;;;29.50;53.80;;;;;;4980121;28;20450;-82
2023/08/21 01:47:32;;;;;;;35.57;27.40;;;29.50;53.90;;;;;;4979489;28;20474;-83
2023/08/21 01:50:00;;;;;;;30.47;22.47;;;29.50;53.90;;;;;;4979365;28;20422;-82
2023/08/21 01:52:28;;;;;;;30.40;24.60;;;29.40;53.80;;;;;;4979115;28;20425;-83
2023/08/21 01:54:56;;;;;;;27.00;20.00;;;29.40;53.80;;;;;;4979592;28;20441;-82
2023/08/21 01:57:23;;;;;;;27.90;20.17;;;29.40;53.80;;;;;;4973265;28;20521;-80
2023/08/21 01:59:53;;;;;;;27.10;22.00;;;29.40;53.80;;;;;;4979585;28;20467;-82
2023/08/21 02:02:20;;;;;;;21.70;16.60;;;29.40;53.80;;;;;;4979496;28;20417;-82
2023/08/21 02:04:49;;;;;;;20.23;14.50;;;29.40;53.60;;;;;;4971963;28;20444;-82
2023/08/21 02:07:17;;;;;;;20.47;16.77;;;29.40;53.70;;;;;;4979784;28;20446;-82
2023/08/21 02:09:45;;;;;;;17.43;12.87;;;29.30;53.60;;;;;;4979251;28;20462;-83
2023/08/21 02:12:13;;;;;;;20.70;15.27;;;29.30;53.50;;;;;;4978784;28;20832;-82
2023/08/21 02:14:41;;;;;;;17.83;13.30;;;29.30;53.60;;;;;;4980019;28;20434;-82
2023/08/21 02:17:10;;;;;;;18.27;11.60;;;29.30;53.50;;;;;;4978900;28;20421;-81
2023/08/21 02:19:38;;;;;;;15.37;10.17;;;29.20;53.30;;;;;;4978863;28;20442;-83
2023/08/21 02:22:06;;;;;;;13.87;10.67;;;29.30;53.30;;;;;;4978782;28;20501;-82
2023/08/21 02:24:34;;;;;;;9.73;8.73;;;29.20;53.20;;;;;;4978748;28;20970;-82
2023/08/21 02:27:03;;;;;;;10.93;8.07;;;29.20;53.20;;;;;;4977010;28;20465;-81
2023/08/21 02:29:31;;;;;;;12.53;8.80;;;29.20;53.20;;;;;;4972758;28;20474;-82
2023/08/21 02:31:59;;;;;;;10.80;8.20;;;29.20;53.20;;;;;;4978958;28;20425;-82
2023/08/21 02:34:29;;;;;;;9.00;6.67;;;29.20;53.10;;;;;;4979017;28;20448;-82
2023/08/21 02:36:58;;;;;;;11.87;7.30;;;29.10;53.10;;;;;;4983748;28;20420;-82
2023/08/21 02:39:26;;;;;;;7.97;6.50;;;29.10;53.10;;;;;;4984994;28;20436;-82
2023/08/21 02:41:54;;;;;;;8.80;5.97;;;29.10;53.10;;;;;;4984994;28;20445;-82
2023/08/21 02:44:22;;;;;;;8.20;5.50;;;29.10;53.00;;;;;;4986256;28;20444;-82
2023/08/21 02:46:50;;;;;;;9.63;5.70;;;29.10;53.10;;;;;;4986272;28;20451;-82
2023/08/21 02:49:18;;;;;;;6.03;5.30;;;29.10;53.00;;;;;;4984076;28;20489;-82
2023/08/21 02:51:47;;;;;;;6.33;4.47;;;29.10;53.00;;;;;;4982494;28;20473;-82
2023/08/21 02:54:14;;;;;;;5.63;5.13;;;29.10;53.10;;;;;;4982538;28;20512;-82
2023/08/21 02:56:42;;;;;;;5.80;4.53;;;29.10;53.00;;;;;;4982257;28;21020;-82
2023/08/21 02:59:10;;;;;;;10.43;5.40;;;29.00;52.90;;;;;;4981904;28;20492;-81
2023/08/21 03:01:38;;;;;;;5.97;5.20;;;29.10;52.90;;;;;;4979909;28;20445;-82
2023/08/21 03:04:06;;;;;;;5.73;4.97;;;29.00;52.70;;;;;;4980449;28;20791;-82
2023/08/21 03:06:34;;;;;;;7.60;4.57;;;29.00;53.00;;;;;;4983162;28;20416;-82
2023/08/21 03:09:04;;;;;;;6.10;4.80;;;29.00;52.90;;;;;;4982727;28;20517;-82
2023/08/21 03:11:31;;;;;;;6.83;4.63;;;29.10;52.80;;;;;;4982484;28;20437;-81
2023/08/21 03:14:00;;;;;;;5.67;4.40;;;29.00;52.80;;;;;;4982838;28;20504;-84
2023/08/21 03:16:27;;;;;;;5.23;4.00;;;29.00;52.80;;;;;;4981849;28;20448;-81
2023/08/21 03:18:56;;;;;;;9.03;3.80;;;29.00;52.90;;;;;;4981820;28;20445;-81
2023/08/21 03:21:24;;;;;;;4.10;3.70;;;29.00;52.90;;;;;;4973954;28;20452;-81
2023/08/21 03:23:55;;;;;;;5.60;3.30;;;29.00;52.80;;;;;;4982212;28;20425;-81
2023/08/21 03:26:25;;;;;;;3.60;3.23;;;29.00;52.90;;;;;;4981276;28;20433;-82
2023/08/21 03:28:53;;;;;;;4.47;3.33;;;29.00;52.80;;;;;;4980681;28;20428;-81
2023/08/21 03:31:20;;;;;;;5.73;3.53;;;28.90;52.80;;;;;;4981672;28;20428;-81
2023/08/21 03:33:49;;;;;;;6.03;3.50;;;28.90;52.70;;;;;;4982129;28;20925;-82
2023/08/21 03:36:16;;;;;;;3.70;3.00;;;28.90;52.80;;;;;;4986210;28;20825;-81
2023/08/21 03:38:44;;;;;;;5.57;3.00;;;28.90;52.80;;;;;;4990321;28;20446;-82
2023/08/21 03:41:12;;;;;;;6.90;3.10;;;28.90;52.60;;;;;;4981959;28;20452;-82
2023/08/21 03:43:41;;;;;;;3.93;3.40;;;28.90;52.70;;;;;;4982052;28;20424;-82
2023/08/21 03:46:09;;;;;;;6.07;3.17;;;28.90;52.70;;;;;;4981578;28;20424;-81
2023/08/21 03:48:37;;;;;;;4.43;2.80;;;28.90;52.70;;;;;;4980823;28;20452;-82
2023/08/21 03:51:05;;;;;;;6.57;3.30;;;28.90;52.60;;;;;;4982933;28;20949;-82
2023/08/21 03:53:33;;;;;;;3.67;2.83;;;28.90;52.60;;;;;;4983394;28;20429;-81
2023/08/21 03:56:01;;;;;;;3.33;2.70;;;28.80;52.60;;;;;;4982463;28;20419;-81
2023/08/21 03:58:29;;;;;;;7.23;2.83;;;28.80;52.50;;;;;;4990208;28;20437;-81
2023/08/21 04:00:58;;;;;;;3.00;2.70;;;28.90;52.60;;;;;;4991023;28;20437;-82
2023/08/21 04:03:26;;;;;;;3.40;3.10;;;28.80;52.60;;;;;;4983784;28;20573;-82
2023/08/21 04:05:56;;;;;;;4.77;2.87;;;28.80;52.60;;;;;;4981603;28;20483;-83
2023/08/21 04:08:24;;;;;;;5.20;2.70;;;28.80;52.60;;;;;;5015254;23;20466;-77
2023/08/21 04:10:53;;;;;;;5.47;3.20;;;28.80;52.60;;;;;;5013362;28;20477;-78
2023/08/21 04:13:21;;;;;;;3.10;2.60;;;28.80;52.60;;;;;;5016377;28;20437;-78
2023/08/21 04:15:50;;;;;;;2.73;2.30;;;28.70;52.50;;;;;;5016501;28;20505;-78
2023/08/21 04:18:19;;;;;;;2.60;2.37;;;28.70;52.50;;;;;;5016377;28;20451;-78
2023/08/21 04:21:06;;;;;;;3.50;2.20;;;28.70;52.60;;;;;;5017035;28;20414;-78
2023/08/21 04:23:34;;;;;;;4.00;2.37;;;28.70;52.60;;;;;;5016410;28;20451;-78
2023/08/21 04:26:02;;;;;;;3.33;2.13;;;28.70;52.40;;;;;;5008799;28;20567;-78
2023/08/21 04:28:31;;;;;;;3.10;2.33;;;28.70;52.50;;;;;;5018416;28;20541;-78
2023/08/21 04:30:58;;;;;;;2.00;1.90;;;28.70;52.50;;;;;;5019382;28;20447;-78
2023/08/21 04:33:29;;;;;;;2.30;2.10;;;28.70;52.60;;;;;;5018117;28;20574;-78
2023/08/21 04:35:57;;;;;;;4.53;2.70;;;28.70;52.50;;;;;;5007496;28;20439;-78
2023/08/21 04:38:25;;;;;;;3.93;2.43;;;28.70;52.60;;;;;;5016444;28;20530;-78
2023/08/21 04:40:53;;;;;;;5.30;2.77;;;28.60;52.50;;;;;;5008813;28;20439;-78
2023/08/21 04:43:21;;;;;;;2.33;2.13;;;28.60;52.50;;;;;;5015002;28;20522;-78
2023/08/21 04:45:50;;;;;;;3.40;1.93;;;28.70;52.60;;;;;;5002887;28;20463;-78
2023/08/21 04:48:17;;;;;;;2.90;2.57;;;28.70;52.50;;;;;;5016507;28;20443;-78
2023/08/21 04:50:47;;;;;;;3.90;2.07;;;28.60;52.60;;;;;;5016904;28;20524;-78
2023/08/21 04:53:15;;;;;;;3.97;2.03;;;28.70;52.60;;;;;;5015959;28;20415;-78
2023/08/21 04:55:43;;;;;;;4.10;2.43;;;28.60;52.60;;;;;;5010614;28;20436;-78
2023/08/21 04:58:11;;;;;;;6.20;2.73;;;28.60;52.50;;;;;;5010503;28;20538;-78
2023/08/21 05:00:39;;;;;;;4.63;2.60;;;28.60;52.40;;;;;;5015734;28;20451;-78
2023/08/21 05:03:08;;;;;;;3.20;2.27;;;28.60;52.50;;;;;;5005990;28;20471;-78
2023/08/21 05:05:36;;;;;;;2.30;2.10;;;28.60;52.50;;;;;;5007712;28;20436;-78
2023/08/21 05:08:06;;;;;;;2.33;2.13;;;28.60;52.40;;;;;;5015437;28;20443;-78
2023/08/21 05:10:34;;;;;;;2.10;2.00;;;28.60;52.50;;;;;;5015405;28;20427;-78
2023/08/21 05:13:02;;;;;;;2.53;2.30;;;28.60;52.40;;;;;;5014589;28;20438;-78
2023/08/21 05:15:30;;;;;;;3.53;2.30;;;28.60;52.40;;;;;;5014469;28;20418;-77
2023/08/21 05:17:58;;;;;;;4.50;2.07;;;28.60;52.40;;;;;;5013878;28;20475;-77
2023/08/21 05:20:26;;;;;;;4.27;2.40;;;28.50;52.60;;;;;;5014437;28;20425;-78
2023/08/21 05:22:54;;;;;;;2.90;2.50;;;28.50;52.50;;;;;;5015081;28;20969;-77
2023/08/21 05:25:23;;;;;;;3.03;1.97;;;28.50;52.40;;;;;;5012534;28;20491;-78
2023/08/21 05:27:51;;;;;;;2.03;1.93;;;28.50;52.50;;;;;;5008218;28;20523;-77
2023/08/21 05:30:19;;;;;;;3.77;2.37;;;28.50;52.40;;;;;;5014811;28;20469;-77
2023/08/21 05:32:47;;;;;;;3.73;2.40;;;28.50;52.40;;;;;;5015004;28;20527;-78
2023/08/21 05:35:14;;;;;;;3.10;2.30;;;28.50;52.50;;;;;;5014571;28;20439;-78
2023/08/21 05:37:42;;;;;;;2.70;2.10;;;28.50;52.60;;;;;;5002454;28;20512;-77
2023/08/21 05:40:11;;;;;;;3.00;2.03;;;28.50;52.80;;;;;;5002520;28;20479;-77
2023/08/21 05:42:41;;;;;;;2.90;2.27;;;28.50;52.70;;;;;;5006579;28;20451;-78
2023/08/21 05:45:10;;;;;;;7.23;2.70;;;28.50;52.70;;;;;;5014623;28;20552;-78
2023/08/21 05:47:37;;;;;;;2.60;2.40;;;28.50;52.70;;;;;;5014419;28;20471;-78
2023/08/21 05:50:06;;;;;;;2.37;2.20;;;28.50;52.80;;;;;;5014567;28;20423;-78
2023/08/21 05:52:34;;;;;;;2.57;2.40;;;28.50;52.80;;;;;;5006230;28;20477;-78
2023/08/21 05:55:02;;;;;;;2.50;2.20;;;28.50;52.80;;;;;;5007753;28;20443;-78
2023/08/21 05:57:30;;;;;;;3.70;2.53;;;28.50;52.90;;;;;;5012398;28;20442;-78
2023/08/21 05:59:59;;;;;;;3.50;2.00;;;28.50;52.80;;;;;;5013225;28;20498;-78
2023/08/21 06:02:27;;;;;;;3.17;2.40;;;28.50;52.80;;;;;;5004308;28;21039;-78
2023/08/21 06:04:55;;;;;;;3.70;2.60;;;28.50;53.00;;;;;;5013675;28;20498;-78
2023/08/21 06:07:22;;;;;;;3.43;2.43;;;28.50;53.00;;;;;;5012843;28;20455;-78
2023/08/21 06:09:50;;;;;;;5.63;2.30;;;28.50;52.90;;;;;;5012071;28;20530;-78
2023/08/21 06:12:19;;;;;;;3.77;2.20;;;28.50;53.00;;;;;;4996268;28;20458;-78
2023/08/21 06:14:47;;;;;;;3.53;2.53;;;28.50;53.00;;;;;;5013073;28;20510;-78
2023/08/21 06:17:16;;;;;;;3.90;2.50;;;28.50;53.10;;;;;;5013708;28;20458;-78
2023/08/21 06:19:48;;;;;;;3.13;2.77;;;28.60;53.10;;;;;;5007732;28;20478;-79
2023/08/21 06:22:17;;;;;;;3.77;3.17;;;28.60;53.00;;;;;;5015514;28;20476;-79
2023/08/21 06:24:46;;;;;;;4.40;3.30;;;28.60;53.20;;;;;;5015624;28;20415;-79
2023/08/21 06:27:14;;;;;;;5.20;3.50;;;28.60;53.10;;;;;;5014645;28;20844;-80
2023/08/21 06:29:42;;;;;;;6.00;3.80;;;28.60;53.20;;;;;;5009345;28;20885;-78
2023/08/21 06:32:10;;;;;;;6.47;4.30;;;28.60;53.30;;;;;;5008201;28;20481;-78
2023/08/21 06:34:39;;;;;;;4.13;3.83;;;28.60;53.20;;;;;;5006235;28;20483;-79
2023/08/21 06:37:07;;;;;;;4.87;3.63;;;28.70;53.30;;;;;;5006478;28;20984;-79
2023/08/21 06:39:35;;;;;;;5.67;4.10;;;28.70;53.40;;;;;;5006033;28;20435;-79
2023/08/21 06:42:03;;;;;;;4.10;3.70;;;28.70;53.20;;;;;;5014231;28;20469;-79
2023/08/21 06:44:31;;;;;;;5.60;3.50;;;28.80;53.40;;;;;;5015582;28;20484;-79
2023/08/21 06:46:59;;;;;;;4.53;3.60;;;28.80;53.40;;;;;;5010379;28;20468;-79
2023/08/21 06:49:27;;;;;;;4.23;3.33;;;28.80;53.20;;;;;;5014180;28;20460;-79
2023/08/21 06:51:56;;;;;;;3.63;3.33;;;28.90;53.40;;;;;;5014391;28;20803;-78
2023/08/21 06:54:24;;;;;;;5.40;2.90;;;28.90;53.30;;;;;;5014024;28;20465;-79
2023/08/21 06:56:51;;;;;;;3.67;3.00;;;28.90;53.40;;;;;;5010397;28;20410;-78
2023/08/21 06:59:19;;;;;;;3.80;2.70;;;28.90;53.40;;;;;;5012101;28;20458;-78
2023/08/21 07:01:47;;;;;;;5.97;3.20;;;28.90;53.50;;;;;;5006973;28;20461;-79
2023/08/21 07:04:15;;;;;;;3.20;2.50;;;29.00;53.40;;;;;;5013427;28;20509;-79
2023/08/21 07:06:43;;;;;;;4.30;2.60;;;29.00;53.60;;;;;;5013765;28;20441;-79
2023/08/21 07:09:13;;;;;;;3.83;2.53;;;29.00;53.30;;;;;;5013885;28;20483;-78
2023/08/21 07:11:41;;;;;;;6.77;2.43;;;29.00;53.40;;;;;;5013856;28;20434;-79
2023/08/21 07:14:09;;;;;;;4.13;2.50;;;29.00;53.40;;;;;;5012995;28;20446;-78
2023/08/21 07:16:37;;;;;;;3.77;2.50;;;29.10;53.50;;;;;;5013962;28;20475;-78
2023/08/21 07:19:05;;;;;;;3.23;2.20;;;29.10;53.40;;;;;;5013608;28;20451;-78
2023/08/21 07:21:35;;;;;;;5.27;2.30;;;29.10;53.40;;;;;;5014102;28;20463;-78
2023/08/21 07:24:03;;;;;;;4.43;2.23;;;29.20;53.30;;;;;;5017235;28;20446;-78
2023/08/21 07:26:33;;;;;;;4.33;2.40;;;29.20;53.30;;;;;;5017502;28;20508;-78
2023/08/21 07:29:01;;;;;;;3.13;2.13;;;29.30;53.30;;;;;;5020591;28;20456;-78
2023/08/21 07:31:28;;;;;;;4.20;2.00;;;29.30;53.30;;;;;;5020965;28;20443;-78
2023/08/21 07:33:56;;;;;;;2.97;1.93;;;29.40;53.10;;;;;;5009917;28;20445;-78
2023/08/21 07:36:24;;;;;;;5.50;2.00;;;29.40;53.10;;;;;;5014648;28;20470;-79
2023/08/21 07:38:52;;;;;;;4.43;1.90;;;29.50;53.20;;;;;;5017973;28;20462;-78
2023/08/21 07:41:20;;;;;;;3.83;1.93;;;29.50;53.00;;;;;;5022032;28;20469;-78
2023/08/21 07:43:49;;;;;;;2.60;1.83;;;29.60;52.90;;;;;;5020860;28;20515;-78
2023/08/21 07:46:18;;;;;;;1.57;1.47;;;29.60;52.80;;;;;;5011895;28;20458;-78
2023/08/21 07:48:46;;;;;;;2.90;1.57;;;29.70;52.60;;;;;;5015402;28;20473;-79
2023/08/21 07:51:15;;;;;;;5.50;2.30;;;29.70;52.40;;;;;;5017406;28;20495;-78
2023/08/21 07:53:42;;;;;;;3.07;1.60;;;29.80;52.50;;;;;;5017528;28;20523;-80
2023/08/21 07:56:11;;;;;;;2.00;1.80;;;29.80;52.30;;;;;;5013140;28;20441;-80
2023/08/21 07:58:39;;;;;;;2.13;1.70;;;29.90;52.30;;;;;;5013783;28;20447;-79
2023/08/21 08:01:08;;;;;;;2.00;1.60;;;30.00;52.20;;;;;;5023827;28;20427;-80
2023/08/21 08:03:37;;;;;;;5.60;1.90;;;30.10;52.00;;;;;;5020084;28;20457;-79
2023/08/21 08:06:05;;;;;;;4.50;1.73;;;30.20;51.90;;;;;;5018731;28;20470;-79
2023/08/21 08:08:33;;;;;;;1.73;1.63;;;30.20;51.60;;;;;;5011534;28;20914;-77
2023/08/21 08:11:04;;;;;;;3.97;1.53;;;30.30;51.50;;;;;;5014152;28;20531;-77
2023/08/21 08:13:32;;;;;;;2.90;1.93;;;30.40;51.30;;;;;;5011890;28;20428;-77
2023/08/21 08:16:00;;;;;;;6.73;1.70;;;30.50;51.20;;;;;;5014154;28;20538;-77
2023/08/21 08:18:29;;;;;;;3.83;1.73;;;30.50;50.90;;;;;;5014404;28;20464;-77
2023/08/21 08:20:57;;;;;;;2.93;1.53;;;30.60;50.30;;;;;;5014868;28;20480;-78
2023/08/21 08:23:25;;;;;;;1.60;1.33;;;30.60;49.80;;;;;;5006132;28;20475;-77
2023/08/21 08:25:53;;;;;;;3.70;1.57;;;30.60;49.90;;;;;;5014112;28;20526;-77
2023/08/21 08:28:21;;;;;;;3.03;1.63;;;30.70;49.90;;;;;;5013704;28;20456;-77
2023/08/21 08:30:49;;;;;;;2.80;1.30;;;30.70;49.40;;;;;;5013085;28;20454;-77
2023/08/21 08:33:16;;;;;;;1.60;1.50;;;30.70;49.20;;;;;;5010547;28;20509;-79
2023/08/21 08:35:46;;;;;;;3.63;1.90;;;30.70;49.00;;;;;;5007395;28;20466;-78
2023/08/21 08:38:14;;;;;;;1.90;1.50;;;30.80;49.00;;;;;;5010536;28;20476;-79
2023/08/21 08:40:44;;;;;;;2.23;1.57;;;30.90;48.90;;;;;;5011890;28;20554;-79
2023/08/21 08:43:12;;;;;;;2.00;1.80;;;31.00;48.80;;;;;;5013867;28;20444;-78
2023/08/21 08:45:41;;;;;;;2.13;1.80;;;31.00;48.20;;;;;;5005890;28;20436;-79
2023/08/21 08:48:10;;;;;;;4.20;1.97;;;31.10;47.80;;;;;;5011676;28;20985;-77
2023/08/21 08:50:38;;;;;;;1.90;1.80;;;31.20;47.50;;;;;;5014032;28;20463;-79
2023/08/21 08:53:08;;;;;;;2.33;1.23;;;31.30;47.40;;;;;;5015770;28;20467;-79
2023/08/21 08:55:44;;;;;;;3.00;1.20;;;31.30;47.10;;;;;;5013491;28;20452;-78
2023/08/21 08:58:12;;;;;;;1.73;1.30;;;31.30;46.50;;;;;;5001871;28;20475;-79
2023/08/21 09:00:39;;;;;;;2.93;1.50;;;31.30;45.90;;;;;;5016852;28;20472;-80
2023/08/21 09:03:08;;;;;;;1.50;1.40;;;31.40;45.50;;;;;;5014320;28;20449;-78
2023/08/21 09:05:36;;;;;;;3.80;1.83;;;31.50;45.50;;;;;;5013635;28;20523;-80
2023/08/21 09:08:11;;;;;;;2.30;1.63;;;31.60;45.30;;;;;;5013077;28;20455;-78
2023/08/21 09:10:40;;;;;;;2.40;1.27;;;31.60;45.20;;;;;;5004805;28;20503;-79
2023/08/21 09:13:13;;;;;;;2.20;1.70;;;31.70;44.80;;;;;;4999613;28;20457;-80
2023/08/21 09:15:42;;;;;;;1.50;1.20;;;31.80;44.60;;;;;;5003592;28;20500;-78
2023/08/21 09:18:10;;;;;;;1.87;1.10;;;31.80;44.60;;;;;;5002421;28;20464;-79
2023/08/21 09:20:38;;;;;;;5.63;1.20;;;31.90;44.60;;;;;;5010077;28;20444;-80
2023/08/21 09:23:06;;;;;;;2.73;1.20;;;32.00;44.40;;;;;;5006427;28;20441;-79
2023/08/21 09:25:36;;;;;;;1.60;1.20;;;32.00;44.40;;;;;;5009409;28;20547;-79
2023/08/21 09:28:08;;;;;;;2.03;1.33;;;32.00;44.00;;;;;;5014571;28;20460;-78
2023/08/21 09:30:46;;;;;;;3.90;1.40;;;32.10;43.90;;;;;;5012878;28;20543;-78
2023/08/21 09:33:14;;;;;;;1.73;1.10;;;32.10;43.60;;;;;;5007800;28;20448;-78
2023/08/21 09:35:42;;;;;;;2.10;1.37;;;32.10;43.40;;;;;;5006420;28;21014;-78
2023/08/21 09:38:10;;;;;;;1.60;1.37;;;32.20;43.10;;;;;;5018918;28;20487;-79
2023/08/21 09:40:41;;;;;;;1.70;0.97;;;32.20;43.10;;;;;;5015367;28;20479;-78
2023/08/21 09:43:10;;;;;;;6.10;1.10;;;32.30;43.00;;;;;;5010841;28;20495;-77
2023/08/21 09:45:38;;;;;;;3.43;1.30;;;32.30;43.20;;;;;;5009132;28;20549;-79
2023/08/21 09:48:07;;;;;;;4.10;1.20;;;32.40;43.20;;;;;;5008217;28;20968;-79
2023/08/21 09:50:36;;;;;;;4.57;3.20;;;32.50;43.50;;;;;;5010582;28;20463;-79
2023/08/21 09:53:04;;;;;;;2.60;1.60;;;32.70;41.30;;;;;;5013915;28;20501;-78
2023/08/21 09:55:32;;;;;;;4.63;1.50;;;32.60;42.50;;;;;;5014250;28;20459;-79
2023/08/21 09:58:02;;;;;;;1.43;1.27;;;32.70;42.30;;;;;;5008833;28;20488;-79
2023/08/21 10:00:30;;;;;;;1.67;1.47;;;32.80;42.30;;;;;;5008946;28;20480;-79
2023/08/21 10:03:01;;;;;;;1.90;1.10;;;32.80;41.30;;;;;;5005623;28;20448;-79
2023/08/21 10:05:31;;;;;;;2.30;1.03;;;32.90;41.40;;;;;;5006993;28;20472;-78
2023/08/21 10:08:01;;;;;;;2.17;1.10;;;32.90;40.80;;;;;;5035885;22;20495;-79
2023/08/21 10:10:30;;;;;;;4.27;1.67;;;32.90;41.00;;;;;;5009970;28;20467;-81
2023/08/21 10:13:00;;;;;;;9.33;1.53;;;32.90;40.10;;;;;;5002906;28;20457;-81
2023/08/21 10:15:33;;;;;;;8.63;1.20;;;33.10;40.10;;;;;;5010123;28;20437;-80
2023/08/21 10:18:18;;;;;;;1.00;0.90;;;33.10;40.30;;;;;;5011021;28;20456;-80
2023/08/21 10:20:46;;;;;;;2.10;0.97;;;33.10;39.90;;;;;;5004202;28;20528;-80
2023/08/21 10:23:25;;;;;;;5.83;1.20;;;33.10;39.90;;;;;;4994043;28;20445;-80
2023/08/21 10:25:56;;;;;;;1.33;1.00;;;33.10;39.80;;;;;;4993735;28;20473;-79
2023/08/21 10:28:44;;;;;;;2.73;1.10;;;33.10;39.60;;;;;;4994665;28;20481;-80
2023/08/21 10:31:33;;;;;;;2.10;0.90;;;33.10;39.40;;;;;;4997242;28;20467;-77
2023/08/21 10:34:02;;;;;;;3.23;0.97;;;33.10;39.20;;;;;;5004061;28;20517;-81
2023/08/21 10:37:12;;;;;;;2.73;1.00;;;33.10;39.60;;;;;;5011996;28;20432;-80
2023/08/21 10:39:53;;;;;;;1.33;1.20;;;33.20;39.40;;;;;;5005799;28;20475;-79
2023/08/21 10:42:37;;;;;;;1.30;1.10;;;33.10;38.80;;;;;;5007824;28;20449;-82
2023/08/21 10:45:11;;;;;;;3.13;1.10;;;32.90;38.60;;;;;;4996546;28;20481;-78
2023/08/21 10:47:40;;;;;;;2.30;1.20;;;33.00;38.60;;;;;;4997954;28;20450;-80
2023/08/21 10:50:09;;;;;;;2.30;1.00;;;33.10;38.50;;;;;;4994762;28;20465;-80
2023/08/21 10:52:39;;;;;;;1.00;1.00;;;33.10;38.20;;;;;;4996589;28;20485;-81
2023/08/21 10:55:09;;;;;;;1.43;0.90;;;33.10;38.00;;;;;;4997235;28;20449;-78
2023/08/21 10:57:37;;;;;;;3.30;1.00;;;33.10;37.90;;;;;;4993866;28;20479;-81
2023/08/21 11:00:07;;;;;;;2.83;1.60;;;33.10;38.20;;;;;;4998474;28;20864;-80
2023/08/21 11:02:34;;;;;;;2.63;1.47;;;33.30;39.00;;;;;;4998917;28;20532;-82
2023/08/21 11:05:05;;;;;;;1.57;1.07;;;33.50;38.00;;;;;;5001385;28;20519;-82
2023/08/21 11:07:37;;;;;;;1.13;0.90;;;33.60;37.80;;;;;;5014380;28;20424;-80
2023/08/21 11:10:07;;;;;;;1.00;0.90;;;33.50;37.40;;;;;;5015086;28;20518;-79
2023/08/21 11:12:38;;;;;;;1.20;1.10;;;33.50;37.30;;;;;;4997607;28;20544;-77
2023/08/21 11:15:07;;;;;;;1.30;1.20;;;33.50;37.20;;;;;;5000837;28;20441;-78
2023/08/21 11:17:35;;;;;;;2.20;1.20;;;33.50;37.00;;;;;;5000654;28;20492;-81
2023/08/21 11:20:08;;;;;;;5.33;1.00;;;33.40;36.70;;;;;;5012426;28;20527;-81
2023/08/21 11:22:36;;;;;;;5.70;1.10;;;33.30;36.90;;;;;;5016383;28;20467;-83
2023/08/21 11:25:04;;;;;;;1.17;1.00;;;33.30;36.90;;;;;;5012302;28;20469;-80
2023/08/21 11:27:33;;;;;;;1.87;1.13;;;33.20;37.30;;;;;;5006981;28;20518;-81
2023/08/21 11:30:01;;;;;;;1.27;1.10;;;33.20;37.30;;;;;;5021067;28;20479;-80
2023/08/21 11:32:29;;;;;;;1.57;1.20;;;33.30;37.60;;;;;;5013526;28;20449;-80
2023/08/21 11:34:57;;;;;;;3.30;1.17;;;33.40;37.20;;;;;;5002618;28;20446;-81
2023/08/21 11:37:27;;;;;;;1.97;1.20;;;33.50;37.10;;;;;;5019631;28;20444;-81
2023/08/21 11:39:56;;;;;;;1.87;1.13;;;33.60;37.00;;;;;;5003912;28;20531;-81
2023/08/21 11:42:30;;;;;;;4.47;1.37;;;33.80;36.60;;;;;;5001245;28;21015;-81
2023/08/21 11:44:58;;;;;;;2.93;1.50;;;34.00;36.20;;;;;;4998653;28;20445;-77
2023/08/21 11:47:31;;;;;;;5.73;1.30;;;34.10;36.90;;;;;;4996888;28;20444;-79
2023/08/21 11:50:05;;;;;;;3.57;1.40;;;34.20;36.60;;;;;;5007229;28;20469;-80
2023/08/21 11:52:38;;;;;;;3.03;1.40;;;34.20;36.20;;;;;;5016779;28;20455;-81
2023/08/21 11:55:09;;;;;;;1.27;1.27;;;34.30;36.90;;;;;;5004469;28;20460;-81
2023/08/21 11:57:46;;;;;;;2.47;1.27;;;34.40;36.20;;;;;;5002800;28;20512;-81
2023/08/21 12:00:18;;;;;;;2.90;1.30;;;34.60;35.80;;;;;;4992412;28;20461;-80
2023/08/21 12:02:54;;;;;;;1.57;1.37;;;34.60;35.00;;;;;;4990884;28;20469;-80
2023/08/21 12:05:23;;;;;;;1.63;1.40;;;34.70;36.20;;;;;;4992336;28;20468;-79
2023/08/21 12:07:52;;;;;;;1.37;1.27;;;34.90;36.20;;;;;;4994227;28;20484;-80
2023/08/21 12:10:24;;;;;;;1.30;1.20;;;35.00;36.10;;;;;;4997223;28;20527;-77
2023/08/21 12:12:51;;;;;;;3.90;1.90;;;35.10;36.00;;;;;;5003162;28;20443;-80
2023/08/21 12:15:19;;;;;;;3.33;1.70;;;35.10;36.00;;;;;;5000026;28;20443;-79
2023/08/21 12:17:47;;;;;;;1.33;1.33;;;35.20;36.00;;;;;;5005608;28;20452;-80
2023/08/21 12:20:15;;;;;;;2.40;2.20;;;35.30;35.90;;;;;;4995797;28;20560;-79
2023/08/21 12:22:43;;;;;;;3.23;2.00;;;35.30;36.00;;;;;;4995653;28;20442;-80
2023/08/21 12:25:14;;;;;;;1.87;1.77;;;35.40;36.10;;;;;;4994996;28;20510;-80
2023/08/21 12:27:42;;;;;;;1.67;1.57;;;35.40;35.90;;;;;;4991856;28;20540;-79
2023/08/21 12:30:11;;;;;;;1.90;1.80;;;35.50;35.90;;;;;;4996136;28;20473;-79
2023/08/21 12:32:40;;;;;;;3.70;1.40;;;35.50;35.90;;;;;;4994084;28;20484;-80
2023/08/21 12:35:11;;;;;;;2.93;1.73;;;35.60;36.00;;;;;;4992684;28;20449;-79
2023/08/21 12:37:39;;;;;;;1.50;1.40;;;35.60;36.00;;;;;;4994560;28;20441;-79
2023/08/21 12:40:09;;;;;;;1.60;1.50;;;35.70;36.00;;;;;;5009088;28;20464;-79
2023/08/21 12:42:38;;;;;;;1.53;1.40;;;35.60;36.00;;;;;;5006339;28;20480;-79
2023/08/21 12:45:07;;;;;;;1.77;1.60;;;35.60;36.30;;;;;;5004377;28;20482;-79
2023/08/21 12:47:35;;;;;;;4.87;1.60;;;35.40;36.30;;;;;;4993018;28;20508;-79
2023/08/21 12:50:04;;;;;;;2.07;1.60;;;35.20;36.70;;;;;;4993782;28;20560;-80
2023/08/21 12:52:32;;;;;;;2.30;1.70;;;35.00;37.00;;;;;;4994262;28;20476;-79
2023/08/21 12:55:03;;;;;;;3.70;1.60;;;35.00;37.30;;;;;;5010611;28;20539;-79